Time;durP1;ratioP1;P1;durP2;ratioP2;P2;SDS_P1;SDS_P2;PMS_P1;PMS_P2;Temp;Humidity;BMP_temperature;BMP_pressure;BME280_temperature;BME280_humidity;BME280_pressure;Samples;Min_cycle;Max_cycle;Signal;HPM_P1;HPM_P2
2023/01/14 00:00:40;;;;;;;74.28;47.33;;;5.10;99.90;;;;;;4899890;29;20035;-73
2023/01/14 00:03:06;;;;;;;70.28;43.05;;;5.00;99.90;;;;;;4898701;29;20460;-72
2023/01/14 00:05:32;;;;;;;63.13;42.00;;;5.10;99.90;;;;;;4908791;29;20024;-73
2023/01/14 00:07:57;;;;;;;71.82;46.03;;;5.10;99.90;;;;;;4900796;29;20040;-73
2023/01/14 00:10:23;;;;;;;54.15;35.45;;;5.10;99.90;;;;;;4896935;29;20025;-73
2023/01/14 00:12:49;;;;;;;46.58;31.25;;;4.90;99.90;;;;;;4897560;29;20457;-73
2023/01/14 00:15:16;;;;;;;55.30;33.55;;;4.80;99.90;;;;;;4897046;29;20021;-73
2023/01/14 00:17:43;;;;;;;51.53;34.08;;;4.90;99.90;;;;;;4898648;29;20032;-73
2023/01/14 00:20:09;;;;;;;57.70;38.35;;;4.80;99.90;;;;;;4896730;29;20021;-73
2023/01/14 00:22:35;;;;;;;69.07;46.72;;;4.90;99.90;;;;;;4897183;29;20036;-73
2023/01/14 00:25:01;;;;;;;68.38;47.20;;;4.90;99.90;;;;;;4896954;29;20021;-73
2023/01/14 00:27:26;;;;;;;66.18;44.42;;;4.90;99.90;;;;;;4896726;29;20413;-73
2023/01/14 00:29:52;;;;;;;61.13;40.05;;;4.80;99.90;;;;;;4896641;29;20044;-73
2023/01/14 00:32:18;;;;;;;63.05;41.80;;;4.80;99.90;;;;;;4895769;29;20481;-73
2023/01/14 00:34:45;;;;;;;58.75;38.72;;;4.80;99.90;;;;;;4900443;29;20145;-73
2023/01/14 00:37:11;;;;;;;55.17;38.42;;;4.70;99.90;;;;;;4896568;29;20115;-74
2023/01/14 00:39:37;;;;;;;61.28;39.15;;;4.70;99.90;;;;;;4896794;29;20029;-74
2023/01/14 00:42:03;;;;;;;58.38;39.03;;;4.80;99.90;;;;;;4892746;29;20056;-73
2023/01/14 00:44:29;;;;;;;63.28;42.25;;;4.80;99.90;;;;;;4896096;29;20489;-74
2023/01/14 00:46:54;;;;;;;68.88;47.00;;;4.70;99.90;;;;;;4896858;29;20108;-74
2023/01/14 00:49:24;;;;;;;70.63;49.80;;;4.80;99.90;;;;;;4896746;29;20409;-73
2023/01/14 00:51:50;;;;;;;76.90;50.88;;;4.60;99.90;;;;;;4895118;29;20123;-73
2023/01/14 00:54:18;;;;;;;80.47;52.97;;;4.60;99.90;;;;;;4880116;29;20057;-73
2023/01/14 00:56:45;;;;;;;83.63;51.40;;;4.60;99.90;;;;;;4895605;29;20043;-74
2023/01/14 00:59:22;;;;;;;73.75;50.10;;;4.60;99.90;;;;;;4895361;29;20041;-74
2023/01/14 01:01:50;;;;;;;83.32;54.45;;;4.60;99.90;;;;;;4893384;29;20035;-73
2023/01/14 01:04:17;;;;;;;80.00;51.42;;;4.60;99.90;;;;;;4896259;29;20021;-73
2023/01/14 01:06:43;;;;;;;81.00;55.13;;;4.70;99.90;;;;;;4896646;29;20044;-74
2023/01/14 01:09:09;;;;;;;73.25;52.10;;;4.70;99.90;;;;;;4880419;29;20072;-74
2023/01/14 01:11:38;;;;;;;75.22;50.83;;;4.70;99.90;;;;;;4894734;29;20123;-74
2023/01/14 01:14:04;;;;;;;92.60;62.10;;;4.70;99.90;;;;;;4896192;29;20039;-74
2023/01/14 01:16:30;;;;;;;166.20;104.40;;;4.70;99.90;;;;;;4895982;29;20032;-74
2023/01/14 01:18:57;;;;;;;121.40;81.30;;;4.60;99.90;;;;;;4895802;29;20528;-74
2023/01/14 01:21:24;;;;;;;115.03;71.60;;;4.50;99.90;;;;;;4892736;29;20033;-72
2023/01/14 01:23:50;;;;;;;104.75;72.03;;;4.40;99.90;;;;;;4882918;29;20033;-73
2023/01/14 01:26:22;;;;;;;98.72;63.95;;;4.40;99.90;;;;;;4891924;29;20069;-73
2023/01/14 01:28:52;;;;;;;90.45;58.10;;;4.40;99.90;;;;;;4897351;29;20044;-74
2023/01/14 01:31:20;;;;;;;98.38;59.42;;;4.40;99.90;;;;;;4895480;29;20066;-72
2023/01/14 01:33:47;;;;;;;90.60;57.58;;;4.50;99.90;;;;;;4895773;29;20032;-73
2023/01/14 01:36:14;;;;;;;79.75;53.22;;;4.40;99.90;;;;;;4894456;29;20035;-73
2023/01/14 01:38:41;;;;;;;76.13;49.42;;;4.40;99.90;;;;;;4895441;29;20032;-73
2023/01/14 01:41:16;;;;;;;94.70;59.60;;;4.30;99.90;;;;;;4878928;29;20061;-73
2023/01/14 01:43:56;;;;;;;85.53;55.58;;;4.20;99.90;;;;;;4895471;29;20036;-73
2023/01/14 01:46:22;;;;;;;81.80;50.42;;;4.30;99.90;;;;;;4895498;29;20115;-73
2023/01/14 01:48:48;;;;;;;79.20;50.30;;;4.30;99.90;;;;;;4895736;29;20108;-73
2023/01/14 01:51:21;;;;;;;84.30;52.72;;;4.30;99.90;;;;;;4895355;29;20035;-74
2023/01/14 01:53:51;;;;;;;84.72;55.50;;;4.30;99.90;;;;;;4895651;29;20107;-72
2023/01/14 01:56:21;;;;;;;75.53;50.58;;;4.40;99.90;;;;;;4895171;29;20027;-73
2023/01/14 01:58:48;;;;;;;69.25;45.75;;;4.30;99.90;;;;;;4895559;29;20502;-74
2023/01/14 02:01:15;;;;;;;64.22;41.30;;;4.30;99.90;;;;;;4892689;29;20108;-73
2023/01/14 02:03:43;;;;;;;72.15;45.78;;;4.30;99.90;;;;;;4878773;29;20493;-74
2023/01/14 02:06:10;;;;;;;65.07;43.80;;;4.40;99.90;;;;;;4894189;29;20057;-73
2023/01/14 02:08:39;;;;;;;65.72;41.47;;;4.50;99.90;;;;;;4891714;29;20450;-73
2023/01/14 02:11:11;;;;;;;60.53;42.97;;;4.60;99.90;;;;;;4895390;29;20517;-73
2023/01/14 02:14:01;;;;;;;61.97;43.03;;;4.60;99.90;;;;;;4878543;29;20497;-73
2023/01/14 02:16:45;;;;;;;66.70;43.33;;;4.60;99.90;;;;;;4895106;29;20072;-72
2023/01/14 02:19:54;;;;;;;61.28;40.75;;;4.40;99.90;;;;;;4878697;29;20024;-73
2023/01/14 02:23:11;;;;;;;62.60;40.85;;;4.20;99.90;;;;;;4896452;29;20028;-73
2023/01/14 02:25:59;;;;;;;60.35;41.70;;;4.30;99.90;;;;;;4824401;29;20049;-73
2023/01/14 02:28:46;;;;;;;60.30;41.50;;;4.20;99.90;;;;;;4837994;29;20445;-72
2023/01/14 02:31:15;;;;;;;63.58;42.10;;;4.20;99.90;;;;;;4842402;29;20082;-73
2023/01/14 02:33:52;;;;;;;60.50;42.15;;;4.30;99.90;;;;;;4824541;29;20049;-73
2023/01/14 02:36:41;;;;;;;63.47;42.38;;;4.30;99.90;;;;;;4841812;29;20623;-73
2023/01/14 02:39:16;;;;;;;62.53;41.80;;;4.30;99.90;;;;;;4827299;29;20034;-73
2023/01/14 02:45:05;;;;;;;63.10;41.78;;;4.40;99.90;;;;;;4825134;29;20182;-73
2023/01/14 02:47:32;;;;;;;65.80;41.45;;;4.50;99.90;;;;;;4842489;29;20159;-73
2023/01/14 02:50:00;;;;;;;64.50;42.90;;;4.50;99.90;;;;;;4841926;29;20041;-73
2023/01/14 02:52:27;;;;;;;60.03;41.42;;;4.40;99.90;;;;;;4825286;29;20038;-73
2023/01/14 02:55:03;;;;;;;67.68;45.42;;;4.50;99.90;;;;;;4826738;29;20041;-73
2023/01/14 02:58:23;;;;;;;61.83;44.00;;;4.60;99.90;;;;;;4834521;29;20082;-72
2023/01/14 03:01:01;;;;;;;69.43;47.90;;;4.60;99.90;;;;;;4860425;29;20049;-73
2023/01/14 03:03:56;;;;;;;71.05;49.05;;;4.60;99.90;;;;;;4897960;29;20045;-72
2023/01/14 03:06:29;;;;;;;79.88;53.30;;;4.60;99.90;;;;;;4899654;29;20396;-73
2023/01/14 03:08:57;;;;;;;89.63;55.47;;;4.60;99.90;;;;;;4871363;29;20382;-72
2023/01/14 03:11:38;;;;;;;88.22;53.80;;;4.60;99.90;;;;;;4895491;29;20385;-73
2023/01/14 03:14:10;;;;;;;75.32;53.75;;;4.50;99.90;;;;;;4899839;29;20037;-74
2023/01/14 03:16:58;;;;;;;82.30;51.80;;;4.40;99.90;;;;;;4898057;29;20052;-73
2023/01/14 03:19:38;;;;;;;69.95;50.33;;;4.30;99.90;;;;;;4896385;29;20116;-73
2023/01/14 03:22:07;;;;;;;67.93;49.13;;;4.30;99.90;;;;;;4882069;29;20041;-73
2023/01/14 03:24:37;;;;;;;77.38;52.92;;;4.30;99.90;;;;;;4896549;29;20035;-73
2023/01/14 03:27:11;;;;;;;78.10;55.78;;;4.20;99.90;;;;;;4875995;29;20041;-73
2023/01/14 03:29:41;;;;;;;;;;;4.20;99.90;;;;;;4879528;29;20395;-73
2023/01/14 03:32:14;;;;;;;86.65;59.00;;;4.20;99.90;;;;;;4878981;29;19916;-73
2023/01/14 03:34:48;;;;;;;85.38;61.47;;;4.20;99.90;;;;;;4861213;29;20064;-73
2023/01/14 03:37:17;;;;;;;84.53;59.92;;;4.20;99.90;;;;;;4880226;29;20025;-72
2023/01/14 03:39:47;;;;;;;86.50;61.65;;;4.20;99.90;;;;;;4880208;29;20033;-73
2023/01/14 03:42:18;;;;;;;88.97;63.53;;;4.20;99.90;;;;;;4880345;29;20032;-73
2023/01/14 03:44:59;;;;;;;91.20;63.67;;;4.30;99.90;;;;;;4879909;29;20037;-73
2023/01/14 03:47:31;;;;;;;90.15;64.45;;;4.30;99.90;;;;;;4880328;29;20039;-74
2023/01/14 03:50:00;;;;;;;93.10;62.78;;;4.30;99.90;;;;;;4880222;29;20047;-73
2023/01/14 03:52:35;;;;;;;91.13;65.53;;;4.30;99.90;;;;;;4879666;29;20025;-72
2023/01/14 03:55:04;;;;;;;92.15;61.67;;;4.20;99.90;;;;;;4879773;29;20533;-72
2023/01/14 03:57:43;;;;;;;90.93;64.78;;;4.30;99.90;;;;;;4879333;29;20084;-73
2023/01/14 04:00:32;;;;;;;86.90;61.40;;;4.30;99.90;;;;;;4879472;29;20041;-73
2023/01/14 04:03:01;;;;;;;86.70;62.88;;;4.40;99.90;;;;;;4879845;29;20025;-73
2023/01/14 04:05:27;;;;;;;92.45;63.95;;;4.40;99.90;;;;;;4879864;29;20025;-74
2023/01/14 04:07:57;;;;;;;80.35;59.63;;;4.40;99.90;;;;;;4879399;29;20036;-73
2023/01/14 04:10:23;;;;;;;91.03;61.80;;;4.50;99.90;;;;;;4879651;29;20037;-73
2023/01/14 04:15:33;;;;;;;94.47;61.78;;;4.60;99.90;;;;;;4879959;29;20029;-73
2023/01/14 04:17:59;;;;;;;81.13;59.33;;;4.70;99.90;;;;;;4879797;29;20090;-73
2023/01/14 04:20:25;;;;;;;84.40;57.92;;;4.80;99.90;;;;;;4879472;29;20032;-73
2023/01/14 04:22:51;;;;;;;84.78;62.25;;;4.90;99.90;;;;;;4879219;29;20025;-73
2023/01/14 04:25:16;;;;;;;88.72;62.97;;;4.90;99.90;;;;;;4879076;29;20029;-73
2023/01/14 04:27:42;;;;;;;89.55;62.63;;;4.90;99.90;;;;;;4890121;29;20044;-73
2023/01/14 04:30:09;;;;;;;94.25;66.30;;;5.00;99.90;;;;;;4898167;29;20052;-72
2023/01/14 04:32:35;;;;;;;90.78;64.80;;;5.00;99.90;;;;;;4898115;29;20036;-73
2023/01/14 04:35:01;;;;;;;86.38;59.28;;;5.00;99.90;;;;;;4897325;29;20033;-73
2023/01/14 04:37:27;;;;;;;88.55;61.80;;;4.90;99.90;;;;;;4898133;29;20031;-74
2023/01/14 04:39:52;;;;;;;84.43;61.38;;;4.70;99.90;;;;;;4898089;29;20037;-73
2023/01/14 04:42:27;;;;;;;85.38;60.20;;;4.70;99.90;;;;;;4898177;29;20402;-72
2023/01/14 04:44:59;;;;;;;80.75;60.35;;;4.70;99.90;;;;;;4897849;29;20048;-73
2023/01/14 04:47:25;;;;;;;90.43;62.55;;;4.70;99.90;;;;;;4897679;29;20044;-73
2023/01/14 04:49:51;;;;;;;98.35;64.25;;;4.70;99.90;;;;;;4897546;29;20058;-73
2023/01/14 04:52:19;;;;;;;89.15;64.85;;;4.80;99.90;;;;;;4897345;29;20049;-73
2023/01/14 04:54:45;;;;;;;86.15;62.75;;;4.70;99.90;;;;;;4897734;29;20043;-73
2023/01/14 04:57:12;;;;;;;83.45;61.28;;;4.80;99.90;;;;;;4897179;29;20048;-73
2023/01/14 04:59:38;;;;;;;93.60;61.35;;;4.80;99.90;;;;;;4896998;29;20036;-72
2023/01/14 05:02:04;;;;;;;92.32;59.58;;;4.90;99.90;;;;;;4897216;29;20404;-72
2023/01/14 05:04:33;;;;;;;94.28;66.05;;;4.80;99.90;;;;;;4897661;29;20025;-73
2023/01/14 05:07:01;;;;;;;98.68;66.20;;;4.80;99.90;;;;;;4897205;29;20039;-73
2023/01/14 05:09:27;;;;;;;92.40;63.95;;;4.80;99.90;;;;;;4897415;29;20033;-74
2023/01/14 05:11:53;;;;;;;90.65;64.60;;;4.90;99.90;;;;;;4897169;29;20025;-74
2023/01/14 05:14:19;;;;;;;91.75;65.70;;;4.90;99.90;;;;;;4896985;29;20025;-73
2023/01/14 05:16:44;;;;;;;103.78;70.28;;;4.80;99.90;;;;;;4897335;29;20037;-72
2023/01/14 05:19:10;;;;;;;109.38;74.47;;;4.80;99.90;;;;;;4896986;29;20496;-73
2023/01/14 05:21:36;;;;;;;101.50;69.40;;;4.70;99.90;;;;;;4897487;29;20492;-74
2023/01/14 05:24:02;;;;;;;100.93;69.68;;;4.70;99.90;;;;;;4897125;29;20047;-73
2023/01/14 05:26:28;;;;;;;99.82;65.43;;;4.80;99.90;;;;;;4895815;29;20112;-74
2023/01/14 05:28:54;;;;;;;105.47;68.45;;;4.70;99.90;;;;;;4878114;29;20041;-74
2023/01/14 05:31:20;;;;;;;108.22;73.25;;;4.80;99.90;;;;;;4878325;29;20086;-74
2023/01/14 05:33:45;;;;;;;106.45;71.32;;;4.70;99.90;;;;;;4877877;29;20044;-73
2023/01/14 05:36:11;;;;;;;105.97;68.68;;;4.70;99.90;;;;;;4878323;29;20021;-73
2023/01/14 05:38:37;;;;;;;97.85;69.60;;;4.70;99.90;;;;;;4878380;29;20119;-74
2023/01/14 05:41:03;;;;;;;96.00;68.85;;;4.80;99.90;;;;;;4878338;29;20454;-73
2023/01/14 05:46:17;;;;;;;103.03;68.43;;;4.80;99.90;;;;;;4878074;29;20025;-74
2023/01/14 05:48:43;;;;;;;99.53;67.43;;;4.80;99.90;;;;;;4878281;29;20045;-74
2023/01/14 05:51:13;;;;;;;104.20;69.90;;;4.80;99.90;;;;;;4878319;29;20077;-73
2023/01/14 05:53:39;;;;;;;103.28;71.10;;;4.80;99.90;;;;;;4877810;29;20171;-73
2023/01/14 05:56:06;;;;;;;110.90;74.20;;;4.70;99.90;;;;;;4877312;29;20096;-73
2023/01/14 05:58:31;;;;;;;108.93;69.88;;;4.80;99.90;;;;;;4877375;29;20389;-73
2023/01/14 06:06:48;;;;;;;112.10;75.13;;;4.70;99.90;;;;;;4894165;29;20041;-73
2023/01/14 06:09:16;;;;;;;112.45;77.65;;;4.70;99.90;;;;;;4887811;29;20049;-74
2023/01/14 06:12:02;;;;;;;117.60;75.28;;;4.70;99.90;;;;;;4876747;29;20096;-73
2023/01/14 06:14:31;;;;;;;109.03;72.97;;;4.70;99.90;;;;;;4884793;29;20037;-74
2023/01/14 06:16:57;;;;;;;104.07;74.90;;;4.70;99.90;;;;;;4892467;29;20071;-73
2023/01/14 06:19:24;;;;;;;109.72;71.75;;;4.60;99.90;;;;;;4894386;29;20063;-73
2023/01/14 06:21:50;;;;;;;110.93;74.30;;;4.70;99.90;;;;;;4893454;29;20540;-73
2023/01/14 06:24:16;;;;;;;113.03;72.85;;;4.70;99.90;;;;;;4894635;29;20059;-73
2023/01/14 06:26:42;;;;;;;109.72;72.43;;;4.70;99.90;;;;;;4884721;29;20134;-73
2023/01/14 06:29:10;;;;;;;108.32;74.07;;;4.70;99.90;;;;;;4913473;29;20188;-73
2023/01/14 06:31:37;;;;;;;95.15;69.78;;;4.70;99.90;;;;;;4910231;29;20044;-73
2023/01/14 06:34:04;;;;;;;105.53;72.95;;;4.70;99.90;;;;;;4905193;29;20028;-73
2023/01/14 06:36:31;;;;;;;112.72;76.18;;;4.70;99.90;;;;;;4912915;29;20543;-74
2023/01/14 06:38:57;;;;;;;105.88;71.95;;;4.70;99.90;;;;;;4910539;29;20036;-73
2023/01/14 06:41:24;;;;;;;113.97;76.82;;;4.70;99.90;;;;;;4912643;29;20039;-73
2023/01/14 06:43:49;;;;;;;101.05;72.45;;;4.70;99.90;;;;;;4903439;29;20032;-73
2023/01/14 06:46:16;;;;;;;121.90;76.20;;;4.70;99.90;;;;;;4896149;29;20032;-72
2023/01/14 06:48:43;;;;;;;105.68;74.38;;;4.80;99.90;;;;;;4896050;29;20033;-72
2023/01/14 06:51:15;;;;;;;112.95;77.72;;;4.80;99.90;;;;;;4896233;29;20468;-72
2023/01/14 06:53:42;;;;;;;109.85;80.30;;;4.70;99.90;;;;;;4893784;29;20064;-73
2023/01/14 06:56:16;;;;;;;116.50;77.55;;;4.70;99.90;;;;;;4895886;29;20024;-72
2023/01/14 06:58:45;;;;;;;117.50;80.75;;;4.80;99.90;;;;;;4892921;29;20033;-72
2023/01/14 07:01:11;;;;;;;110.82;78.05;;;4.90;99.90;;;;;;4896125;29;20025;-72
2023/01/14 07:03:38;;;;;;;107.65;75.55;;;4.90;99.90;;;;;;4895903;29;20029;-74
2023/01/14 07:06:04;;;;;;;122.15;81.13;;;4.90;99.90;;;;;;4895774;29;20029;-74
2023/01/14 07:08:30;;;;;;;118.20;82.18;;;4.90;99.90;;;;;;4896630;29;20400;-73
2023/01/14 07:10:56;;;;;;;112.18;79.40;;;4.90;99.90;;;;;;4899193;29;20020;-74
2023/01/14 07:13:22;;;;;;;114.07;77.43;;;4.90;99.90;;;;;;4899222;29;20028;-73
2023/01/14 07:15:48;;;;;;;109.05;79.10;;;4.90;99.90;;;;;;4899167;29;20027;-73
2023/01/14 07:18:15;;;;;;;116.30;77.60;;;5.00;99.90;;;;;;4899348;29;20546;-73
2023/01/14 07:20:41;;;;;;;106.28;75.28;;;4.90;99.90;;;;;;4898885;29;20055;-74
2023/01/14 07:23:07;;;;;;;114.65;74.22;;;5.00;99.90;;;;;;4899138;29;20032;-73
2023/01/14 07:25:33;;;;;;;109.78;74.40;;;5.00;99.90;;;;;;4899166;29;20503;-74
2023/01/14 07:27:59;;;;;;;114.38;81.05;;;5.00;99.90;;;;;;4885461;29;20049;-74
2023/01/14 07:30:25;;;;;;;112.85;77.90;;;5.00;99.90;;;;;;4879993;29;20037;-74
2023/01/14 07:32:51;;;;;;;117.63;80.05;;;5.00;99.90;;;;;;4880350;29;20025;-74
2023/01/14 07:35:17;;;;;;;114.43;79.20;;;5.00;99.90;;;;;;4880230;29;20033;-74
2023/01/14 07:37:42;;;;;;;113.15;77.60;;;5.00;99.90;;;;;;4880159;29;20036;-73
2023/01/14 07:40:09;;;;;;;112.65;74.43;;;5.10;99.90;;;;;;4880257;29;20028;-73
2023/01/14 07:42:35;;;;;;;119.68;79.43;;;5.10;99.90;;;;;;4880314;29;20040;-73
2023/01/14 07:45:01;;;;;;;111.53;76.80;;;5.00;99.90;;;;;;4880195;29;20033;-73
2023/01/14 07:47:27;;;;;;;113.40;77.05;;;5.00;99.90;;;;;;4880341;29;20025;-73
2023/01/14 07:49:53;;;;;;;115.85;78.18;;;5.10;99.90;;;;;;4880079;29;20504;-73
2023/01/14 07:52:18;;;;;;;110.10;80.50;;;5.10;99.90;;;;;;4879665;29;20106;-74
2023/01/14 07:54:44;;;;;;;118.35;80.53;;;5.20;99.90;;;;;;4879851;29;20028;-73
2023/01/14 07:57:12;;;;;;;116.45;79.50;;;5.20;99.90;;;;;;4878886;29;20051;-73
2023/01/14 07:59:38;;;;;;;116.15;78.65;;;5.20;99.90;;;;;;4879070;29;20213;-74
2023/01/14 08:02:08;;;;;;;126.72;83.32;;;5.20;99.90;;;;;;4879595;29;20125;-73
2023/01/14 08:04:34;;;;;;;125.93;84.57;;;5.30;99.90;;;;;;4877753;29;20045;-73
2023/01/14 08:07:00;;;;;;;130.63;88.55;;;5.30;99.90;;;;;;4880202;29;20036;-74
2023/01/14 08:09:26;;;;;;;127.47;87.78;;;5.30;99.90;;;;;;4879412;29;20044;-74
2023/01/14 08:11:52;;;;;;;123.03;85.40;;;5.40;99.90;;;;;;4879729;29;20474;-73
2023/01/14 08:14:18;;;;;;;129.52;83.47;;;5.40;99.90;;;;;;4879802;29;20036;-74
2023/01/14 08:16:44;;;;;;;118.13;80.22;;;5.40;99.90;;;;;;4879552;29;20393;-73
2023/01/14 08:19:12;;;;;;;121.80;81.65;;;5.50;99.90;;;;;;4879280;29;20552;-73
2023/01/14 08:21:38;;;;;;;136.95;86.60;;;5.50;99.90;;;;;;4876498;29;20385;-74
2023/01/14 08:24:05;;;;;;;122.95;83.93;;;5.50;99.90;;;;;;4879345;29;20478;-73
2023/01/14 08:26:31;;;;;;;113.80;79.20;;;5.60;99.90;;;;;;4879964;29;20029;-72
2023/01/14 08:28:56;;;;;;;121.60;81.20;;;5.60;99.90;;;;;;4898029;29;20504;-73
2023/01/14 08:31:22;;;;;;;111.47;77.50;;;5.60;99.90;;;;;;4897326;29;20021;-74
2023/01/14 08:33:48;;;;;;;107.90;81.70;;;5.70;99.90;;;;;;4897903;29;20052;-72
2023/01/14 08:36:17;;;;;;;118.53;82.90;;;5.70;99.90;;;;;;4896610;29;20039;-73
2023/01/14 08:38:44;;;;;;;116.43;81.80;;;5.80;99.90;;;;;;4899512;29;20040;-73
2023/01/14 08:41:13;;;;;;;113.47;78.47;;;5.80;99.90;;;;;;4897909;29;20032;-74
2023/01/14 08:43:40;;;;;;;112.88;77.47;;;5.80;99.90;;;;;;4897641;29;20048;-73
2023/01/14 08:46:07;;;;;;;114.93;81.20;;;5.90;99.90;;;;;;4897147;29;20033;-73
2023/01/14 08:48:34;;;;;;;114.03;79.93;;;5.90;99.90;;;;;;4897138;29;20032;-73
2023/01/14 08:51:01;;;;;;;108.95;74.57;;;6.00;99.90;;;;;;4896752;29;20042;-73
2023/01/14 08:53:28;;;;;;;114.47;75.60;;;6.00;99.90;;;;;;4897098;29;20035;-74
2023/01/14 08:55:59;;;;;;;106.15;75.15;;;6.10;99.90;;;;;;4897086;29;20024;-73
2023/01/14 08:58:25;;;;;;;118.05;73.93;;;6.00;99.90;;;;;;4896668;29;20040;-72
2023/01/14 09:01:03;;;;;;;108.30;72.85;;;6.00;99.90;;;;;;4896787;29;20029;-73
2023/01/14 09:03:30;;;;;;;113.03;75.25;;;6.00;99.90;;;;;;4896688;29;20469;-73
2023/01/14 09:05:57;;;;;;;102.05;72.78;;;6.00;99.90;;;;;;4896407;29;20025;-73
2023/01/14 09:17:12;;;;;;;109.20;74.57;;;6.20;99.90;;;;;;4896914;29;20024;-73
2023/01/14 09:19:43;;;;;;;110.60;77.38;;;6.20;99.90;;;;;;4896982;29;20035;-72
2023/01/14 09:22:11;;;;;;;110.03;72.20;;;6.30;99.90;;;;;;4896611;29;20150;-73
2023/01/14 09:24:36;;;;;;;110.97;76.60;;;6.30;99.90;;;;;;4896185;29;21553;-74
2023/01/14 09:27:02;;;;;;;106.75;73.85;;;6.30;99.90;;;;;;4896060;29;20052;-73
2023/01/14 09:29:29;;;;;;;104.97;72.72;;;6.30;99.90;;;;;;4896162;29;20048;-74
2023/01/14 09:31:54;;;;;;;109.80;75.90;;;6.40;99.90;;;;;;4894075;29;20024;-73
2023/01/14 09:34:20;;;;;;;107.40;73.97;;;6.40;99.90;;;;;;4895865;29;20484;-73
2023/01/14 09:36:46;;;;;;;101.85;73.13;;;6.40;99.90;;;;;;4896313;29;20032;-73
2023/01/14 09:39:12;;;;;;;96.47;67.50;;;6.40;99.90;;;;;;4896544;29;20028;-74
2023/01/14 09:41:50;;;;;;;101.47;69.85;;;6.50;99.90;;;;;;4896659;29;20080;-74
2023/01/14 09:44:16;;;;;;;96.25;66.07;;;6.50;99.90;;;;;;4895313;29;20410;-73
2023/01/14 09:46:42;;;;;;;105.15;75.03;;;6.60;99.90;;;;;;4895880;29;20020;-72
2023/01/14 09:49:13;;;;;;;105.25;73.32;;;6.60;99.90;;;;;;4896392;29;20048;-72
2023/01/14 09:51:57;;;;;;;96.65;68.05;;;6.50;99.90;;;;;;4896547;29;20036;-73
2023/01/14 09:54:43;;;;;;;95.72;65.22;;;6.60;99.90;;;;;;4896843;29;20033;-72
2023/01/14 09:57:34;;;;;;;94.72;66.68;;;6.60;99.90;;;;;;4894682;29;20103;-72
2023/01/14 10:00:11;;;;;;;96.18;67.88;;;6.60;99.90;;;;;;4895463;29;20043;-73
2023/01/14 10:02:49;;;;;;;90.88;64.90;;;6.60;99.90;;;;;;4895469;29;20116;-73
2023/01/14 10:05:22;;;;;;;93.65;66.95;;;6.70;99.90;;;;;;4894629;29;20825;-73
2023/01/14 10:07:49;;;;;;;91.78;65.53;;;6.60;99.90;;;;;;4893286;29;20044;-73
2023/01/14 10:10:44;;;;;;;99.82;68.90;;;6.70;99.90;;;;;;4896232;29;20033;-74
2023/01/14 10:13:30;;;;;;;92.30;65.00;;;6.80;99.90;;;;;;4894739;29;20032;-72
2023/01/14 10:16:02;;;;;;;87.95;64.47;;;6.80;99.90;;;;;;4895375;29;20084;-72
2023/01/14 10:18:32;;;;;;;;;;;6.80;99.90;;;;;;4894671;29;20041;-72
2023/01/14 10:21:03;;;;;;;86.00;62.60;;;6.90;99.90;;;;;;4896017;29;19935;-73
2023/01/14 10:23:36;;;;;;;88.95;60.28;;;6.90;99.90;;;;;;4893840;29;20028;-72
2023/01/14 10:26:13;;;;;;;91.40;61.58;;;6.90;99.90;;;;;;4877042;29;20029;-73
2023/01/14 10:28:41;;;;;;;88.95;64.10;;;6.80;99.90;;;;;;4897043;29;20552;-73
2023/01/14 10:31:30;;;;;;;84.28;58.60;;;6.90;99.90;;;;;;4896353;29;20016;-73
2023/01/14 10:33:58;;;;;;;93.88;64.45;;;6.90;99.90;;;;;;4896558;29;20036;-72
2023/01/14 10:36:29;;;;;;;86.40;60.53;;;7.00;99.90;;;;;;4896234;29;20024;-73
2023/01/14 10:38:56;;;;;;;82.85;58.25;;;7.10;99.90;;;;;;4906468;29;20029;-72
2023/01/14 10:44:14;;;;;;;86.28;58.35;;;7.10;99.90;;;;;;4897789;29;20029;-73
2023/01/14 10:46:42;;;;;;;90.22;58.00;;;7.10;99.90;;;;;;4899774;29;20025;-73
2023/01/14 10:49:42;;;;;;;94.63;63.30;;;7.10;99.90;;;;;;4899826;29;20025;-72
2023/01/14 10:52:21;;;;;;;79.88;58.33;;;7.10;99.90;;;;;;4883346;29;20040;-73
2023/01/14 10:55:11;;;;;;;87.03;59.25;;;7.10;99.90;;;;;;4899668;29;20035;-72
2023/01/14 10:57:45;;;;;;;91.88;63.88;;;7.10;99.90;;;;;;4899408;29;20035;-73
2023/01/14 11:00:36;;;;;;;79.57;56.05;;;7.20;99.90;;;;;;4900014;29;20029;-73
2023/01/14 11:03:07;;;;;;;85.05;55.85;;;7.20;99.90;;;;;;4900039;29;20020;-73
2023/01/14 11:05:35;;;;;;;77.40;56.00;;;7.10;99.90;;;;;;4905625;29;20038;-73
2023/01/14 11:08:22;;;;;;;75.45;54.88;;;7.10;99.90;;;;;;4904190;29;20028;-73
2023/01/14 11:11:16;;;;;;;73.43;52.55;;;7.10;99.90;;;;;;4906226;29;20025;-72
2023/01/14 11:13:44;;;;;;;68.68;50.53;;;7.10;99.90;;;;;;4898095;29;20048;-72
2023/01/14 11:16:25;;;;;;;76.70;53.72;;;7.00;99.90;;;;;;4899783;29;20054;-71
2023/01/14 11:19:01;;;;;;;71.00;52.00;;;7.10;99.90;;;;;;4899050;29;20119;-73
2023/01/14 11:21:31;;;;;;;76.45;51.10;;;7.20;99.90;;;;;;4899956;29;20495;-72
2023/01/14 11:24:03;;;;;;;83.70;58.40;;;7.10;99.90;;;;;;4898459;29;20032;-73
2023/01/14 11:26:33;;;;;;;77.25;55.20;;;7.10;99.90;;;;;;4897223;29;20476;-72
2023/01/14 11:29:23;;;;;;;78.30;55.40;;;7.10;99.90;;;;;;4898348;29;20041;-72
2023/01/14 11:32:06;;;;;;;75.75;51.60;;;7.10;99.90;;;;;;4859554;29;20510;-72
2023/01/14 11:34:37;;;;;;;79.50;54.28;;;7.10;99.90;;;;;;4858046;29;20041;-73
2023/01/14 11:37:09;;;;;;;73.38;52.80;;;7.10;99.90;;;;;;4851998;29;20034;-72
2023/01/14 11:39:39;;;;;;;70.60;51.10;;;7.00;99.90;;;;;;4860601;29;20086;-73
2023/01/14 11:42:41;;;;;;;71.28;53.63;;;7.10;99.90;;;;;;4860462;29;20083;-73
2023/01/14 11:45:10;;;;;;;73.15;51.00;;;7.10;99.90;;;;;;4839337;29;20038;-73
2023/01/14 11:47:49;;;;;;;69.35;49.88;;;7.10;99.90;;;;;;4841836;29;20041;-72
2023/01/14 11:50:23;;;;;;;72.25;49.35;;;7.20;99.90;;;;;;4841326;29;20054;-71
2023/01/14 11:53:01;;;;;;;67.07;48.78;;;7.20;99.90;;;;;;4841971;29;20041;-72
2023/01/14 11:55:29;;;;;;;75.22;49.13;;;7.20;99.90;;;;;;4841053;29;20050;-72
2023/01/14 11:58:16;;;;;;;72.10;49.00;;;7.20;99.90;;;;;;4841236;29;20403;-73
2023/01/14 12:00:55;;;;;;;69.50;46.97;;;7.30;99.90;;;;;;4841427;29;20071;-73
2023/01/14 12:03:55;;;;;;;73.75;50.67;;;7.30;99.90;;;;;;4841123;29;20475;-72
2023/01/14 12:06:24;;;;;;;68.65;49.70;;;7.50;99.90;;;;;;4750074;30;20131;-72
2023/01/14 12:08:55;;;;;;;72.78;51.92;;;7.60;99.90;;;;;;4768871;30;20047;-72
2023/01/14 12:11:31;;;;;;;76.10;50.90;;;7.70;99.90;;;;;;4786826;30;20063;-71
2023/01/14 12:17:03;;;;;;;65.80;49.20;;;7.90;99.90;;;;;;4786661;30;20492;-73
2023/01/14 12:20:05;;;;;;;67.63;49.00;;;7.90;99.90;;;;;;4786666;30;20097;-73
2023/01/14 12:22:50;;;;;;;74.25;50.47;;;7.80;99.90;;;;;;4786101;30;20047;-72
2023/01/14 12:25:18;;;;;;;73.82;50.95;;;7.80;99.90;;;;;;4786987;30;20035;-72
2023/01/14 12:27:44;;;;;;;72.97;50.03;;;7.90;99.90;;;;;;4787160;30;20059;-71
2023/01/14 12:30:21;;;;;;;78.28;52.75;;;7.80;99.90;;;;;;4786587;30;20106;-73
2023/01/14 12:33:09;;;;;;;73.72;50.75;;;7.80;99.90;;;;;;4786955;30;20059;-71
2023/01/14 12:35:47;;;;;;;72.97;50.80;;;7.80;99.90;;;;;;4785514;30;20050;-73
2023/01/14 12:47:15;;;;;;;65.47;45.75;;;7.80;99.90;;;;;;4897946;29;20036;-73
2023/01/14 12:49:43;;;;;;;63.47;42.95;;;7.80;99.90;;;;;;4898344;29;20037;-72
2023/01/14 12:52:12;;;;;;;57.83;41.80;;;7.70;99.90;;;;;;4898691;29;20414;-72
2023/01/14 12:54:40;;;;;;;65.40;41.25;;;7.70;99.90;;;;;;4898203;29;20495;-73
2023/01/14 12:57:08;;;;;;;59.67;39.78;;;7.70;99.90;;;;;;4898226;29;20040;-71
2023/01/14 12:59:37;;;;;;;56.72;39.80;;;7.70;99.90;;;;;;4897663;29;20039;-73
2023/01/14 13:02:20;;;;;;;54.53;37.60;;;7.70;99.90;;;;;;4898589;29;20024;-71
2023/01/14 13:04:54;;;;;;;54.55;37.78;;;7.70;99.90;;;;;;4898107;29;20047;-71
2023/01/14 13:07:26;;;;;;;60.20;38.90;;;7.70;99.90;;;;;;4903658;29;20028;-71
2023/01/14 13:09:58;;;;;;;62.85;39.83;;;7.70;99.90;;;;;;4898541;29;20041;-71
2023/01/14 13:12:36;;;;;;;56.72;40.72;;;7.80;99.90;;;;;;4897773;29;20036;-73
2023/01/14 13:15:07;;;;;;;59.45;38.05;;;7.80;99.90;;;;;;4896748;29;20087;-72
2023/01/14 13:17:39;;;;;;;59.15;41.05;;;7.90;99.90;;;;;;4897701;29;20084;-72
2023/01/14 13:20:43;;;;;;;54.50;39.88;;;8.00;99.90;;;;;;4897472;29;20037;-71
2023/01/14 13:23:09;;;;;;;54.55;39.30;;;8.00;99.90;;;;;;4882774;29;20131;-72
2023/01/14 13:25:45;;;;;;;58.88;38.88;;;8.00;99.90;;;;;;4897271;29;20520;-72
2023/01/14 13:28:11;;;;;;;56.13;38.10;;;8.00;99.90;;;;;;4883467;29;20047;-72
2023/01/14 13:30:42;;;;;;;60.45;40.40;;;8.10;99.90;;;;;;4879193;29;20482;-72